createdAt,value
2019-05-02T00:00:06.998Z,11.73
2019-05-02T00:00:47.569Z,11.77
2019-05-02T00:01:28.140Z,11.83
2019-05-02T00:02:08.695Z,11.81
2019-05-02T00:02:49.258Z,11.81
2019-05-02T00:03:29.839Z,11.83
2019-05-02T00:04:11.923Z,11.8
2019-05-02T00:04:55.553Z,11.87
2019-05-02T00:05:32.017Z,11.8
2019-05-02T00:06:12.137Z,11.83
2019-05-02T00:06:52.681Z,11.81
2019-05-02T00:07:33.239Z,11.81
2019-05-02T00:08:13.801Z,11.83
2019-05-02T00:08:54.369Z,11.81
2019-05-02T00:09:34.933Z,11.77
2019-05-02T00:10:15.495Z,11.81
2019-05-02T00:10:56.099Z,11.73
2019-05-02T00:11:36.709Z,11.8
2019-05-02T00:12:17.306Z,11.75
2019-05-02T00:12:57.858Z,11.73
2019-05-02T00:13:38.406Z,11.77
2019-05-02T00:14:19.344Z,11.75
2019-05-02T00:15:01.806Z,11.72
2019-05-02T00:15:40.479Z,11.7
2019-05-02T00:16:21.075Z,11.72
2019-05-02T00:17:01.613Z,11.68
2019-05-02T00:17:42.173Z,11.73
2019-05-02T00:18:22.753Z,11.69
2019-05-02T00:19:03.300Z,11.69
2019-05-02T00:19:44.965Z,11.69
2019-05-02T00:20:25.795Z,11.62
2019-05-02T00:21:04.987Z,11.69
2019-05-02T00:21:47.110Z,11.63
2019-05-02T00:22:27.655Z,11.65
2019-05-02T00:23:08.232Z,11.63
2019-05-02T00:23:48.784Z,11.75
2019-05-02T00:24:29.338Z,11.63
2019-05-02T00:25:10.975Z,11.66
2019-05-02T00:25:52.478Z,11.63
2019-05-02T00:26:31.039Z,11.65
2019-05-02T00:27:11.603Z,11.66
2019-05-02T00:27:52.170Z,11.65
2019-05-02T00:28:32.731Z,11.66
2019-05-02T00:29:13.314Z,11.69
2019-05-02T00:29:58.509Z,11.62
2019-05-02T00:30:35.801Z,11.69
2019-05-02T00:31:14.985Z,11.7
2019-05-02T00:31:55.565Z,11.72
2019-05-02T00:32:36.133Z,11.6
2019-05-02T00:33:16.729Z,11.66
2019-05-02T00:33:57.291Z,11.63
2019-05-02T00:34:37.842Z,11.66
2019-05-02T00:35:18.402Z,11.59
2019-05-02T00:35:58.960Z,11.65
2019-05-02T00:36:39.510Z,11.65
2019-05-02T00:37:24.418Z,11.68
2019-05-02T00:38:02.366Z,11.65
2019-05-02T00:38:41.199Z,11.69
2019-05-02T00:39:21.769Z,11.68
2019-05-02T00:40:02.324Z,11.55
2019-05-02T00:40:42.905Z,11.65
2019-05-02T00:41:23.493Z,11.66
2019-05-02T00:42:12.287Z,11.59
2019-05-02T00:42:44.633Z,11.66
2019-05-02T00:43:28.938Z,11.65
2019-05-02T00:44:05.969Z,11.65
2019-05-02T00:44:46.805Z,11.65
2019-05-02T00:45:26.880Z,11.57
2019-05-02T00:46:07.446Z,11.57
2019-05-02T00:46:48.007Z,11.57
2019-05-02T00:47:28.564Z,11.65
2019-05-02T00:48:09.116Z,11.55
2019-05-02T00:48:49.661Z,11.59
2019-05-02T00:49:30.735Z,11.63
2019-05-02T00:50:12.469Z,11.57
2019-05-02T00:50:52.485Z,11.6
2019-05-02T00:51:31.949Z,11.63
2019-05-02T00:52:12.991Z,11.57
2019-05-02T00:52:54.048Z,11.66
2019-05-02T00:53:35.081Z,11.51
2019-05-02T00:54:19.043Z,11.6
2019-05-02T00:54:58.656Z,11.6
2019-05-02T00:55:37.924Z,11.54
2019-05-02T00:56:18.471Z,11.63
2019-05-02T00:56:59.050Z,11.55
2019-05-02T00:57:39.603Z,11.51
2019-05-02T00:58:20.171Z,11.48
2019-05-02T00:59:02.230Z,11.54
2019-05-02T00:59:42.353Z,11.52
2019-05-02T01:00:21.842Z,11.48
2019-05-02T01:01:02.423Z,11.55
2019-05-02T01:01:42.989Z,11.55
2019-05-02T01:02:23.600Z,11.54
2019-05-02T01:03:04.145Z,11.57
2019-05-02T01:03:47.023Z,11.62
2019-05-02T01:04:27.416Z,11.55
2019-05-02T01:05:05.860Z,11.54
2019-05-02T01:05:46.423Z,11.55
2019-05-02T01:06:26.987Z,11.6
2019-05-02T01:07:07.570Z,11.51
2019-05-02T01:07:48.104Z,11.52
2019-05-02T01:08:30.892Z,11.51
2019-05-02T01:09:10.859Z,11.54
2019-05-02T01:09:49.854Z,11.54
2019-05-02T01:10:30.392Z,11.51
2019-05-02T01:11:10.956Z,11.47
2019-05-02T01:11:51.513Z,11.51
2019-05-02T01:12:32.068Z,11.52
2019-05-02T01:13:14.724Z,11.5
2019-05-02T01:13:55.581Z,11.47
2019-05-02T01:14:33.774Z,11.45
2019-05-02T01:15:14.356Z,11.51
2019-05-02T01:15:54.912Z,11.4
2019-05-02T01:16:35.478Z,11.41
2019-05-02T01:17:16.059Z,11.41
2019-05-02T01:17:56.601Z,11.36
2019-05-02T01:18:41.187Z,11.37
2019-05-02T01:19:17.721Z,11.41
2019-05-02T01:19:58.287Z,11.36
2019-05-02T01:20:38.853Z,11.35
2019-05-02T01:21:19.412Z,11.37
2019-05-02T01:21:59.970Z,11.33
2019-05-02T01:22:40.523Z,11.35
2019-05-02T01:23:22.956Z,11.36
2019-05-02T01:24:02.916Z,11.41
2019-05-02T01:24:42.369Z,11.37
2019-05-02T01:25:22.927Z,11.36
2019-05-02T01:26:03.476Z,11.33
2019-05-02T01:26:44.038Z,11.35
2019-05-02T01:27:24.595Z,11.4
2019-05-02T01:28:05.151Z,11.4
2019-05-02T01:28:49.121Z,11.36
2019-05-02T01:29:29.740Z,11.43
2019-05-02T01:30:07.391Z,11.41
2019-05-02T01:30:47.418Z,11.4
2019-05-02T01:31:27.988Z,11.36
2019-05-02T01:34:26.778Z,11.43
2019-05-02T01:35:07.330Z,11.41
2019-05-02T01:35:47.879Z,11.4
2019-05-02T01:36:28.439Z,11.36
2019-05-02T01:37:11.834Z,11.41
2019-05-02T01:37:50.931Z,11.4
2019-05-02T01:38:31.667Z,11.37
2019-05-02T01:39:10.736Z,11.36
2019-05-02T01:39:51.323Z,11.36
2019-05-02T01:40:31.874Z,11.41
2019-05-02T01:41:12.436Z,11.37
2019-05-02T01:41:52.986Z,11.44
2019-05-02T01:42:39.761Z,11.41
2019-05-02T01:43:14.138Z,11.43
2019-05-02T01:43:59.528Z,11.36
2019-05-02T01:44:36.221Z,11.37
2019-05-02T01:45:15.821Z,11.36
2019-05-02T01:45:56.367Z,11.27
2019-05-02T01:46:36.936Z,11.33
2019-05-02T01:47:17.495Z,11.32
2019-05-02T01:47:58.078Z,11.29
2019-05-02T01:48:40.006Z,11.32
2019-05-02T01:49:21.709Z,11.18
2019-05-02T01:49:59.757Z,11.23
2019-05-02T01:50:40.295Z,11.27
2019-05-02T01:51:20.856Z,11.23
2019-05-02T01:52:01.444Z,11.25
2019-05-02T01:52:42.007Z,11.25
2019-05-02T01:53:22.579Z,11.26
2019-05-02T01:54:04.890Z,11.27
2019-05-02T01:54:45.639Z,11.26
2019-05-02T01:55:24.278Z,11.25
2019-05-02T01:56:04.845Z,11.23
2019-05-02T01:56:45.416Z,11.19
2019-05-02T01:57:25.977Z,11.19
2019-05-02T01:58:06.569Z,11.27
2019-05-02T01:58:47.119Z,11.26
2019-05-02T01:59:29.015Z,11.23
2019-05-02T02:00:09.312Z,11.25
2019-05-02T02:00:48.975Z,11.17
2019-05-02T02:01:29.481Z,11.14
2019-05-02T02:02:10.040Z,11.12
2019-05-02T02:02:50.605Z,11.17
2019-05-02T02:03:31.196Z,11.07
2019-05-02T02:04:16.112Z,11.14
2019-05-02T02:04:56.806Z,11.08
2019-05-02T02:05:33.463Z,11.14
2019-05-02T02:06:13.520Z,11.15
2019-05-02T02:06:54.112Z,11.23
2019-05-02T02:07:34.692Z,11.22
2019-05-02T02:08:15.289Z,11.19
2019-05-02T02:08:55.840Z,11.26
2019-05-02T02:09:38.697Z,11.25
2019-05-02T02:10:19.717Z,11.3
2019-05-02T02:10:58.172Z,11.29
2019-05-02T02:11:38.135Z,11.26
2019-05-02T02:12:18.698Z,11.19
2019-05-02T02:13:04.561Z,11.19
2019-05-02T02:13:39.821Z,11.04
2019-05-02T02:14:20.425Z,11.02
2019-05-02T02:15:01.026Z,10.99
2019-05-02T02:15:41.594Z,11.05
2019-05-02T02:16:22.152Z,11.04
2019-05-02T02:17:02.723Z,10.92
2019-05-02T02:17:46.729Z,10.92
2019-05-02T02:18:27.447Z,10.94
2019-05-02T02:19:05.380Z,10.92
2019-05-02T02:19:45.021Z,10.99
2019-05-02T02:20:25.602Z,10.94
2019-05-02T02:21:06.186Z,11
2019-05-02T02:21:46.771Z,11.04
2019-05-02T02:22:27.352Z,10.99
2019-05-02T02:23:10.133Z,11
2019-05-02T02:23:49.581Z,11.1
2019-05-02T02:24:29.035Z,11.07
2019-05-02T02:25:09.599Z,11.08
2019-05-02T02:25:50.171Z,11.07
2019-05-02T02:26:30.734Z,11.07
2019-05-02T02:27:11.300Z,11.11
2019-05-02T02:27:54.871Z,11.08
2019-05-02T02:28:33.170Z,11.08
2019-05-02T02:29:12.981Z,11.07
2019-05-02T02:29:53.542Z,11.11
2019-05-02T02:30:34.082Z,11.02
2019-05-02T02:31:14.629Z,11.08
2019-05-02T02:31:55.186Z,11.07
2019-05-02T02:34:53.974Z,10.97
2019-05-02T02:35:34.529Z,10.9
2019-05-02T02:36:15.092Z,10.93
2019-05-02T02:36:55.654Z,10.86
2019-05-02T02:37:36.228Z,10.84
2019-05-02T02:38:16.784Z,10.81
2019-05-02T02:38:57.390Z,10.75
2019-05-02T02:39:37.958Z,10.79
2019-05-02T02:40:18.543Z,10.79
2019-05-02T02:40:59.131Z,10.74
2019-05-02T02:41:45.107Z,10.63
2019-05-02T02:42:24.820Z,10.59
2019-05-02T02:43:10.048Z,10.59
2019-05-02T02:43:41.413Z,10.59
2019-05-02T02:44:21.987Z,10.56
2019-05-02T02:45:02.554Z,10.49
2019-05-02T02:45:43.121Z,10.54
2019-05-02T02:46:23.673Z,10.57
2019-05-02T02:47:04.226Z,10.51
2019-05-02T02:47:44.774Z,10.53
2019-05-02T02:48:25.368Z,10.54
2019-05-02T02:49:05.902Z,10.57
2019-05-02T02:49:46.447Z,10.4
2019-05-02T02:50:27.033Z,10.46
2019-05-02T02:51:07.605Z,10.53
2019-05-02T02:51:48.170Z,10.54
2019-05-02T02:52:28.728Z,10.56
2019-05-02T02:53:09.299Z,10.6
2019-05-02T02:53:49.864Z,10.53
2019-05-02T02:54:30.417Z,10.61
2019-05-02T02:55:15.992Z,10.63
2019-05-02T02:56:00.728Z,10.63
2019-05-02T02:56:34.314Z,10.57
2019-05-02T02:57:19.936Z,10.69
2019-05-02T02:57:58.309Z,10.57
2019-05-02T02:58:43.936Z,10.59
2019-05-02T02:59:19.263Z,10.54
2019-05-02T03:00:05.985Z,10.61
2019-05-02T03:00:35.495Z,10.53
2019-05-02T03:01:26.864Z,10.59
2019-05-02T03:01:56.617Z,10.44
2019-05-02T03:02:47.429Z,10.54
2019-05-02T03:03:20.616Z,10.56
2019-05-02T03:04:01.705Z,10.46
2019-05-02T03:04:43.905Z,10.48
2019-05-02T03:05:25.837Z,10.56
2019-05-02T03:06:05.331Z,10.51
2019-05-02T03:06:44.660Z,10.44
2019-05-02T03:07:25.553Z,10.41
2019-05-02T03:08:05.266Z,10.41
2019-05-02T03:08:45.919Z,10.38
2019-05-02T03:09:26.450Z,10.4
2019-05-02T03:10:05.942Z,10.35
2019-05-02T03:10:44.964Z,10.34
2019-05-02T03:11:25.482Z,10.23
2019-05-02T03:12:05.050Z,10.26
2019-05-02T03:12:45.599Z,10.35
2019-05-02T03:13:26.162Z,10.4
2019-05-02T03:14:09.556Z,10.34
2019-05-02T03:14:49.360Z,10.37
2019-05-02T03:15:29.676Z,10.41
2019-05-02T03:16:09.290Z,10.35
2019-05-02T03:16:49.742Z,10.26
2019-05-02T03:17:30.136Z,10.31
2019-05-02T03:18:10.714Z,10.3
2019-05-02T03:18:51.276Z,10.25
2019-05-02T03:19:31.839Z,10.33
2019-05-02T03:20:12.405Z,10.26
2019-05-02T03:20:52.959Z,10.33
2019-05-02T03:21:33.559Z,10.38
2019-05-02T03:22:14.119Z,10.38
2019-05-02T03:22:54.680Z,10.34
2019-05-02T03:23:35.266Z,10.33
2019-05-02T03:24:15.829Z,10.4
2019-05-02T03:24:56.400Z,10.41
2019-05-02T03:25:49.632Z,10.31
2019-05-02T03:26:17.533Z,10.35
2019-05-02T03:26:58.682Z,10.33
2019-05-02T03:27:40.341Z,10.31
2019-05-02T03:28:20.911Z,10.31
2019-05-02T03:29:00.706Z,10.31
2019-05-02T03:29:44.004Z,10.33
2019-05-02T03:30:31.262Z,10.28
2019-05-02T03:31:20.836Z,10.37
2019-05-02T03:31:42.182Z,10.42
2019-05-02T03:32:32.639Z,10.33
2019-05-02T03:33:09.393Z,10.35
2019-05-02T03:33:54.126Z,10.37
2019-05-02T03:34:24.554Z,10.42
2019-05-02T03:35:05.098Z,10.41
2019-05-02T03:35:48.901Z,10.46
2019-05-02T03:36:29.873Z,10.51
2019-05-02T03:37:10.019Z,10.41
2019-05-02T03:37:51.256Z,10.35
2019-05-02T03:38:32.270Z,10.35
2019-05-02T03:39:14.544Z,10.3
2019-05-02T03:39:56.419Z,10.22
2019-05-02T03:40:32.072Z,10.31
2019-05-02T03:41:13.054Z,10.26
2019-05-02T03:41:55.380Z,10.3
2019-05-02T03:42:43.349Z,10.26
2019-05-02T03:43:11.964Z,10.37
2019-05-02T03:46:13.391Z,10.37
2019-05-02T03:46:54.091Z,10.31
2019-05-02T03:47:36.630Z,10.31
2019-05-02T03:48:18.062Z,10.35
2019-05-02T03:49:05.323Z,10.31
2019-05-02T03:49:33.579Z,10.37
2019-05-02T03:50:14.129Z,10.35
2019-05-02T03:50:54.712Z,10.31
2019-05-02T03:51:35.269Z,10.3
2019-05-02T03:52:15.831Z,10.3
2019-05-02T03:52:56.389Z,10.4
2019-05-02T03:53:36.931Z,10.38
2019-05-02T03:54:19.937Z,10.35
2019-05-02T03:54:58.087Z,10.34
2019-05-02T03:55:38.651Z,10.31
2019-05-02T03:56:19.207Z,10.38
2019-05-02T03:56:59.788Z,10.37
2019-05-02T03:57:42.045Z,10.4
2019-05-02T03:58:20.917Z,10.33
2019-05-02T03:59:01.479Z,10.33
2019-05-02T03:59:42.075Z,10.3
2019-05-02T04:00:24.191Z,10.35
2019-05-02T04:01:03.835Z,10.35
2019-05-02T04:01:43.831Z,10.37
2019-05-02T04:02:24.397Z,10.41
2019-05-02T04:03:04.952Z,10.42
2019-05-02T04:03:45.517Z,10.44
2019-05-02T04:04:26.068Z,10.44
2019-05-02T04:05:06.614Z,10.48
2019-05-02T04:05:47.185Z,10.48
2019-05-02T04:06:27.745Z,10.51
2019-05-02T04:07:08.297Z,10.42
2019-05-02T04:07:48.847Z,10.42
2019-05-02T04:08:29.423Z,10.54
2019-05-02T04:09:09.978Z,10.54
2019-05-02T04:09:50.528Z,10.56
2019-05-02T04:10:31.079Z,10.46
2019-05-02T04:11:11.646Z,10.56
2019-05-02T04:11:52.213Z,10.53
2019-05-02T04:12:33.188Z,10.59
2019-05-02T04:13:13.343Z,10.57
2019-05-02T04:13:53.912Z,10.61
2019-05-02T04:14:37.635Z,10.51
2019-05-02T04:15:15.257Z,10.53
2019-05-02T04:15:55.839Z,10.46
2019-05-02T04:16:36.497Z,10.57
2019-05-02T04:17:16.984Z,10.59
2019-05-02T04:17:57.558Z,10.63
2019-05-02T04:18:38.192Z,10.59
2019-05-02T04:19:18.747Z,10.6
2019-05-02T04:19:59.442Z,10.6
2019-05-02T04:20:43.443Z,10.48
2019-05-02T04:21:24.182Z,10.41
2019-05-02T04:22:01.440Z,10.51
2019-05-02T04:22:42.662Z,10.48
2019-05-02T04:23:27.477Z,10.46
2019-05-02T04:24:10.699Z,10.42
2019-05-02T04:24:47.643Z,10.49
2019-05-02T04:25:27.774Z,10.46
2019-05-02T04:26:06.622Z,10.41
2019-05-02T04:26:53.499Z,10.54
2019-05-02T04:27:27.597Z,10.46
2019-05-02T04:28:11.846Z,10.44
2019-05-02T04:28:51.525Z,10.44
2019-05-02T04:29:31.053Z,10.56
2019-05-02T04:30:11.025Z,10.46
2019-05-02T04:30:51.057Z,10.41
2019-05-02T04:31:31.375Z,10.4
2019-05-02T04:32:11.245Z,10.33
2019-05-02T04:32:55.707Z,10.25
2019-05-02T04:33:34.534Z,10.25
2019-05-02T04:34:15.015Z,10.22
2019-05-02T04:34:55.049Z,10.23
2019-05-02T04:35:34.737Z,10.23
2019-05-02T04:36:14.997Z,10.2
2019-05-02T04:37:00.711Z,10.25
2019-05-02T04:37:40.462Z,10.2
2019-05-02T04:38:19.931Z,10.23
2019-05-02T04:38:55.260Z,10.2
2019-05-02T04:39:38.813Z,10.2
2019-05-02T04:40:18.145Z,10.16
2019-05-02T04:40:59.132Z,10.15
2019-05-02T04:41:39.110Z,10.19
2019-05-02T04:42:21.950Z,10.2
2019-05-02T04:43:01.795Z,10.19
2019-05-02T04:43:40.439Z,10.2
2019-05-02T04:44:19.792Z,10.22
2019-05-02T04:45:17.260Z,10.28
2019-05-02T04:45:52.702Z,10.54
2019-05-02T04:46:26.802Z,10.67
2019-05-02T04:47:10.764Z,10.74
2019-05-02T04:47:42.776Z,10.81
2019-05-02T04:48:23.240Z,10.79
2019-05-02T04:49:03.816Z,10.79
2019-05-02T04:49:44.371Z,10.74
2019-05-02T04:50:25.597Z,10.76
2019-05-02T04:51:09.670Z,10.79
2019-05-02T04:51:48.208Z,10.76
2019-05-02T04:52:28.712Z,10.81
2019-05-02T04:53:08.554Z,10.68
2019-05-02T04:53:49.742Z,10.74
2019-05-02T04:54:32.146Z,10.6
2019-05-02T04:55:19.639Z,10.54
2019-05-02T04:56:01.360Z,10.61
2019-05-02T04:56:30.157Z,10.54
2019-05-02T04:57:10.715Z,10.56
2019-05-02T04:57:51.280Z,10.57
2019-05-02T04:58:34.878Z,10.48
2019-05-02T04:59:17.523Z,10.57
2019-05-02T05:00:02.115Z,10.54
2019-05-02T05:00:33.669Z,10.67
2019-05-02T05:01:14.861Z,10.56
2019-05-02T05:01:58.350Z,10.63
2019-05-02T05:02:39.834Z,10.67
2019-05-02T05:03:20.992Z,10.6
2019-05-02T05:04:02.967Z,10.63
2019-05-02T05:04:45.950Z,10.61
2019-05-02T05:05:25.414Z,10.61
2019-05-02T05:06:07.844Z,10.63
2019-05-02T05:06:52.382Z,10.63
2019-05-02T05:07:23.813Z,10.6
2019-05-02T05:08:04.790Z,10.48
2019-05-02T05:08:48.213Z,10.57
2019-05-02T05:09:27.857Z,10.54
2019-05-02T05:10:08.367Z,10.51
2019-05-02T05:10:48.291Z,10.46
2019-05-02T05:11:29.157Z,10.4
2019-05-02T05:12:10.039Z,10.37
2019-05-02T05:12:50.930Z,10.37
2019-05-02T05:13:31.658Z,10.31
2019-05-02T05:14:12.333Z,10.26
2019-05-02T05:14:53.350Z,10.25
2019-05-02T05:15:40.388Z,10.23
2019-05-02T05:16:15.757Z,10.33
2019-05-02T05:16:57.967Z,10.3
2019-05-02T05:17:37.502Z,10.34
2019-05-02T05:18:17.818Z,10.33
2019-05-02T05:19:00.014Z,10.22
2019-05-02T05:19:39.612Z,10.25
2019-05-02T05:20:20.479Z,10.28
2019-05-02T05:21:01.260Z,10.33
2019-05-02T05:21:42.086Z,10.37
2019-05-02T05:22:22.694Z,10.38
2019-05-02T05:23:03.556Z,10.44
2019-05-02T05:23:44.581Z,10.54
2019-05-02T05:24:25.524Z,10.48
2019-05-02T05:25:07.402Z,10.57
2019-05-02T05:25:47.875Z,10.56
2019-05-02T05:26:28.896Z,10.6
2019-05-02T05:27:13.143Z,10.63
2019-05-02T05:27:52.517Z,10.59
2019-05-02T05:28:34.988Z,10.56
2019-05-02T05:29:13.866Z,10.54
2019-05-02T05:29:53.437Z,10.6
2019-05-02T05:30:36.972Z,10.63
2019-05-02T05:31:16.319Z,10.61
2019-05-02T05:31:55.011Z,10.67
2019-05-02T05:32:34.451Z,10.71
2019-05-02T05:33:15.013Z,10.63
2019-05-02T05:33:57.717Z,10.63
2019-05-02T05:34:37.942Z,10.6
2019-05-02T05:35:17.665Z,10.61
2019-05-02T05:35:57.813Z,10.6
2019-05-02T05:36:38.004Z,10.63
2019-05-02T05:37:18.544Z,10.61
2019-05-02T05:37:59.122Z,10.6
2019-05-02T05:38:40.668Z,10.54
2019-05-02T05:39:20.345Z,10.56
2019-05-02T05:40:00.898Z,10.41
2019-05-02T05:40:41.495Z,10.53
2019-05-02T05:41:23.190Z,10.44
2019-05-02T05:42:02.621Z,10.44
2019-05-02T05:42:43.185Z,10.48
2019-05-02T05:43:23.741Z,10.41
2019-05-02T05:44:04.327Z,10.4
2019-05-02T05:44:44.891Z,10.46
2019-05-02T05:45:27.756Z,10.37
2019-05-02T05:46:10.510Z,10.31
2019-05-02T05:46:47.430Z,10.33
2019-05-02T05:47:27.426Z,10.25
2019-05-02T05:48:08.247Z,10.46
2019-05-02T05:48:48.295Z,10.28
2019-05-02T05:49:28.875Z,10.26
2019-05-02T05:50:09.417Z,10.37
2019-05-02T05:50:49.987Z,10.37
2019-05-02T05:51:30.558Z,10.48
2019-05-02T05:52:11.190Z,10.49
2019-05-02T05:52:52.057Z,10.51
2019-05-02T05:53:32.350Z,10.54
2019-05-02T05:54:12.929Z,10.59
2019-05-02T05:54:53.538Z,10.61
2019-05-02T05:55:34.086Z,10.56
2019-05-02T05:56:14.638Z,10.67
2019-05-02T05:56:57.094Z,10.59
2019-05-02T05:57:35.842Z,10.64
2019-05-02T05:58:18.692Z,10.67
2019-05-02T05:58:59.115Z,10.64
2019-05-02T05:59:38.048Z,10.76
2019-05-02T06:00:22.886Z,10.74
2019-05-02T06:00:58.751Z,10.78
2019-05-02T06:01:39.281Z,10.78
2019-05-02T06:02:19.832Z,10.79
2019-05-02T06:03:09.920Z,10.81
2019-05-02T06:03:44.521Z,10.79
2019-05-02T06:04:23.589Z,10.87
2019-05-02T06:05:03.636Z,10.81
2019-05-02T06:05:42.751Z,10.81
2019-05-02T06:06:24.544Z,10.87
2019-05-02T06:07:03.870Z,10.84
2019-05-02T06:07:44.991Z,10.87
2019-05-02T06:08:25.008Z,10.84
2019-05-02T06:09:06.122Z,10.86
2019-05-02T06:09:46.689Z,10.87
2019-05-02T06:10:27.261Z,10.81
2019-05-02T06:11:07.836Z,10.81
2019-05-02T06:11:50.682Z,10.86
2019-05-02T06:12:30.038Z,10.89
2019-05-02T06:13:10.784Z,10.9
2019-05-02T06:13:50.709Z,10.84
2019-05-02T06:14:30.692Z,10.89
2019-05-02T06:15:11.278Z,10.87
2019-05-02T06:16:01.919Z,10.86
2019-05-02T06:16:32.383Z,10.81
2019-05-02T06:17:12.948Z,10.89
2019-05-02T06:17:53.513Z,10.84
2019-05-02T06:18:36.212Z,10.84
2019-05-02T06:19:17.775Z,10.82
2019-05-02T06:19:55.412Z,10.86
2019-05-02T06:20:35.751Z,10.86
2019-05-02T06:21:17.120Z,10.9
2019-05-02T06:21:56.874Z,10.92
2019-05-02T06:22:37.417Z,10.99
2019-05-02T06:23:17.998Z,10.97
2019-05-02T06:23:58.573Z,11.02
2019-05-02T06:24:39.160Z,10.92
2019-05-02T06:25:31.989Z,10.92
2019-05-02T06:26:00.262Z,11.04
2019-05-02T06:26:44.604Z,11
2019-05-02T06:27:25.610Z,10.93
2019-05-02T06:28:05.162Z,10.93
2019-05-02T06:28:43.255Z,11
2019-05-02T06:29:23.180Z,10.99
2019-05-02T06:30:03.800Z,11.1
2019-05-02T06:30:44.380Z,11.05
2019-05-02T06:31:24.962Z,11.05
2019-05-02T06:32:05.533Z,11.07
2019-05-02T06:32:49.917Z,11.08
2019-05-02T06:33:30.444Z,11.07
2019-05-02T06:34:08.359Z,10.99
2019-05-02T06:34:47.792Z,11.05
2019-05-02T06:35:28.401Z,10.99
2019-05-02T06:36:08.979Z,11.04
2019-05-02T06:36:49.550Z,11.05
2019-05-02T06:37:30.144Z,11
2019-05-02T06:38:10.699Z,10.97
2019-05-02T06:38:52.071Z,10.99
2019-05-02T06:39:32.175Z,11
2019-05-02T06:40:12.462Z,11.02
2019-05-02T06:40:53.029Z,10.99
2019-05-02T06:41:33.605Z,11.04
2019-05-02T06:42:14.181Z,10.93
2019-05-02T06:42:54.752Z,10.97
2019-05-02T06:43:35.343Z,11.05
2019-05-02T06:44:18.335Z,10.9
2019-05-02T06:44:59.645Z,11
2019-05-02T06:45:39.282Z,10.93
2019-05-02T06:46:21.575Z,11.05
2019-05-02T06:46:59.105Z,10.97
2019-05-02T06:47:41.388Z,11.12
2019-05-02T06:48:19.401Z,11.08
2019-05-02T06:48:59.930Z,11.1
2019-05-02T06:49:40.482Z,11.02
2019-05-02T06:50:21.072Z,10.96
2019-05-02T06:51:01.654Z,10.97
2019-05-02T06:51:42.216Z,10.94
2019-05-02T06:52:27.148Z,10.94
2019-05-02T06:53:04.238Z,10.96
2019-05-02T06:53:46.922Z,11.1
2019-05-02T06:54:24.458Z,11.25
2019-05-02T06:55:05.013Z,11.35
2019-05-02T06:55:45.601Z,11.62
2019-05-02T06:56:26.173Z,11.6
2019-05-02T06:57:06.738Z,11.7
2019-05-02T06:57:47.295Z,11.8
2019-05-02T06:58:27.867Z,11.84
2019-05-02T06:59:08.417Z,11.95
2019-05-02T06:59:49.874Z,12.03
2019-05-02T07:00:37.372Z,12.18
2019-05-02T07:01:10.140Z,12.2
2019-05-02T07:01:52.230Z,12.35
2019-05-02T07:02:33.460Z,12.45
2019-05-02T07:03:12.438Z,12.49
2019-05-02T07:03:53.137Z,12.55
2019-05-02T07:04:33.785Z,12.61
2019-05-02T07:05:14.335Z,12.6
2019-05-02T07:05:58.585Z,12.61
2019-05-02T07:06:50.028Z,12.72
2019-05-02T07:07:16.059Z,12.72
2019-05-02T07:07:56.651Z,12.62
2019-05-02T07:08:37.220Z,12.61
2019-05-02T07:09:18.101Z,12.61
2019-05-02T07:09:58.315Z,12.76
2019-05-02T07:10:44.647Z,12.78
2019-05-02T07:11:19.491Z,12.8
2019-05-02T07:12:01.541Z,12.78
2019-05-02T07:12:40.577Z,12.76
2019-05-02T07:13:21.159Z,12.86
2019-05-02T07:14:12.344Z,12.85
2019-05-02T07:14:42.331Z,12.83
2019-05-02T07:15:22.939Z,12.82
2019-05-02T07:16:03.459Z,12.8
2019-05-02T07:16:44.087Z,12.87
2019-05-02T07:17:26.391Z,12.8
2019-05-02T07:18:10.108Z,12.8
2019-05-02T07:18:47.379Z,12.8
2019-05-02T07:19:27.179Z,12.75
2019-05-02T07:20:07.004Z,12.65
2019-05-02T07:20:47.592Z,12.67
2019-05-02T07:21:28.133Z,12.55
2019-05-02T07:22:08.722Z,12.58
2019-05-02T07:22:49.279Z,12.43
2019-05-02T07:23:29.869Z,12.49
2019-05-02T07:24:10.440Z,12.43
2019-05-02T07:24:50.994Z,12.42
2019-05-02T07:25:31.557Z,12.45
2019-05-02T07:26:15.312Z,12.49
2019-05-02T07:26:56.780Z,12.53
2019-05-02T07:27:35.275Z,12.61
2019-05-02T07:28:13.840Z,12.6
2019-05-02T07:28:54.406Z,12.79
2019-05-02T07:29:34.976Z,12.7
2019-05-02T07:30:15.578Z,12.83
2019-05-02T07:30:56.117Z,12.85
2019-05-02T07:31:36.678Z,12.9
2019-05-02T07:32:19.142Z,13
2019-05-02T07:33:01.087Z,12.93
2019-05-02T07:33:38.789Z,12.9
2019-05-02T07:34:19.104Z,12.91
2019-05-02T07:34:59.770Z,12.85
2019-05-02T07:35:40.421Z,12.91
2019-05-02T07:36:20.974Z,12.9
2019-05-02T07:37:01.561Z,12.86
2019-05-02T07:37:43.947Z,12.86
2019-05-02T07:38:25.548Z,12.85
2019-05-02T07:39:05.059Z,12.73
2019-05-02T07:39:43.829Z,12.7
2019-05-02T07:40:24.395Z,12.78
2019-05-02T07:41:04.975Z,12.73
2019-05-02T07:41:45.532Z,12.82
2019-05-02T07:42:26.097Z,12.8
2019-05-02T07:43:06.647Z,12.83
2019-05-02T07:43:47.215Z,13.03
2019-05-02T07:44:32.521Z,12.97
2019-05-02T07:45:09.240Z,12.98
2019-05-02T07:45:48.986Z,13
2019-05-02T07:46:29.540Z,13.01
2019-05-02T07:47:10.127Z,13.01
2019-05-02T07:47:50.689Z,13.04
2019-05-02T07:48:31.235Z,13.03
2019-05-02T07:49:11.797Z,13.08
2019-05-02T07:49:52.350Z,13.16
2019-05-02T07:50:32.927Z,13.28
2019-05-02T07:51:17.162Z,13.23
2019-05-02T07:51:57.462Z,13.28
2019-05-02T07:52:34.933Z,13.25
2019-05-02T07:53:15.153Z,13.37
2019-05-02T07:53:56.040Z,13.39
2019-05-02T07:54:36.364Z,13.39
2019-05-02T07:55:17.115Z,13.39
2019-05-02T07:55:57.870Z,13.33
2019-05-02T07:56:38.455Z,13.25
2019-05-02T07:57:18.989Z,13.19
2019-05-02T07:58:01.854Z,13.12
2019-05-02T07:58:46.776Z,13.08
2019-05-02T07:59:23.257Z,13.04
2019-05-02T08:00:02.630Z,12.98
2019-05-02T08:00:41.865Z,12.9
2019-05-02T08:01:22.456Z,12.85
2019-05-02T08:02:03.023Z,12.72
2019-05-02T08:02:43.614Z,12.73
2019-05-02T08:03:24.185Z,12.62
2019-05-02T08:04:09.549Z,12.58
2019-05-02T08:04:45.332Z,12.55
2019-05-02T08:05:25.904Z,12.46
2019-05-02T08:06:06.474Z,12.43
2019-05-02T08:06:47.078Z,12.4
2019-05-02T08:07:34.114Z,12.35
2019-05-02T08:08:08.200Z,12.24
2019-05-02T08:08:48.773Z,12.2
2019-05-02T08:09:29.335Z,12.04
2019-05-02T08:10:09.896Z,12.06
2019-05-02T08:10:53.337Z,11.97
2019-05-02T08:11:32.160Z,11.99
2019-05-02T08:12:11.641Z,11.95
2019-05-02T08:12:52.302Z,12.13
2019-05-02T08:13:32.871Z,12.07
2019-05-02T08:14:13.831Z,12.02
2019-05-02T08:14:54.392Z,11.91
2019-05-02T08:15:34.963Z,11.95
2019-05-02T08:16:15.600Z,11.88
2019-05-02T08:17:05.166Z,11.8
2019-05-02T08:17:36.746Z,11.83
2019-05-02T08:18:17.318Z,11.83
2019-05-02T08:19:01.265Z,11.87
2019-05-02T08:19:41.657Z,11.84
2019-05-02T08:20:19.604Z,11.9
2019-05-02T08:20:59.705Z,11.88
2019-05-02T08:21:40.316Z,11.87
2019-05-02T08:22:20.872Z,11.8
2019-05-02T08:23:01.443Z,11.86
2019-05-02T08:23:42.004Z,11.86
2019-05-02T08:24:22.561Z,11.86
2019-05-02T08:25:03.264Z,11.97
2019-05-02T08:25:45.367Z,11.87
2019-05-02T08:26:24.419Z,11.91
2019-05-02T08:27:05.018Z,11.86
2019-05-02T08:27:45.611Z,11.83
2019-05-02T08:28:26.176Z,11.81
2019-05-02T08:29:06.776Z,11.91
2019-05-02T08:29:47.435Z,11.81
2019-05-02T08:30:27.973Z,11.86
2019-05-02T08:31:08.571Z,11.86
2019-05-02T08:31:49.150Z,11.91
2019-05-02T08:32:29.730Z,11.95
2019-05-02T08:33:10.356Z,11.91
2019-05-02T08:33:50.942Z,11.95
2019-05-02T08:34:31.509Z,12.1
2019-05-02T08:35:12.058Z,11.97
2019-05-02T08:35:52.638Z,12.03
2019-05-02T08:36:33.204Z,12.04
2019-05-02T08:37:13.798Z,12.06
2019-05-02T08:37:56.052Z,12.03
2019-05-02T08:38:35.009Z,11.97
2019-05-02T08:39:15.593Z,12.06
2019-05-02T08:39:56.156Z,11.94
2019-05-02T08:40:36.816Z,11.97
2019-05-02T08:41:19.870Z,11.94
2019-05-02T08:41:58.005Z,11.91
2019-05-02T08:42:38.517Z,11.97
2019-05-02T08:43:19.132Z,11.97
2019-05-02T08:43:59.775Z,11.87
2019-05-02T08:44:50.566Z,11.94
2019-05-02T08:45:20.949Z,11.97
2019-05-02T08:46:01.550Z,11.99
2019-05-02T08:46:46.085Z,11.91
2019-05-02T08:48:54.927Z,11.91
2019-05-02T08:49:35.481Z,11.91
2019-05-02T08:50:16.070Z,11.83
2019-05-02T08:50:56.641Z,11.84
2019-05-02T08:51:37.189Z,11.83
2019-05-02T08:52:17.785Z,11.81
2019-05-02T08:52:58.392Z,11.77
2019-05-02T08:53:38.956Z,11.87